Time;durP1;ratioP1;P1;durP2;ratioP2;P2;SDS_P1;SDS_P2;PMS_P1;PMS_P2;Temp;Humidity;BMP_temperature;BMP_pressure;BME280_temperature;BME280_humidity;BME280_pressure;Samples;Min_cycle;Max_cycle;Signal;HPM_P1;HPM_P2
2019/11/16 00:02:07;;;;;;;5.9;4.9;;;;;;;;;;;;;
2019/11/16 00:04:33;;;;;;;5.8;5.2;;;;;;;;;;;;;
2019/11/16 00:07:00;;;;;;;9.7;8.3;;;;;;;;;;;;;
2019/11/16 00:09:23;;;;;;;10.1;7.4;;;;;;;;;;;;;
2019/11/16 00:11:49;;;;;;;9.4;7.2;;;;;;;;;;;;;
2019/11/16 00:14:13;;;;;;;8.7;6.7;;;;;;;;;;;;;
2019/11/16 00:16:44;;;;;;;8.1;6.7;;;;;;;;;;;;;
2019/11/16 00:19:06;;;;;;;7;6.3;;;;;;;;;;;;;
2019/11/16 00:21:29;;;;;;;7.9;6.7;;;;;;;;;;;;;
2019/11/16 00:23:54;;;;;;;10.8;8.8;;;;;;;;;;;;;
2019/11/16 00:26:23;;;;;;;9.6;8.6;;;;;;;;;;;;;
2019/11/16 00:28:45;;;;;;;11.4;9;;;;;;;;;;;;;
2019/11/16 00:31:09;;;;;;;10.9;9.5;;;;;;;;;;;;;
2019/11/16 00:33:34;;;;;;;11.7;9.9;;;;;;;;;;;;;
2019/11/16 00:36:12;;;;;;;17.9;13.9;;;;;;;;;;;;;
2019/11/16 00:38:25;;;;;;;16.9;13.7;;;;;;;;;;;;;
2019/11/16 00:40:50;;;;;;;16.3;12.2;;;;;;;;;;;;;
2019/11/16 00:43:16;;;;;;;14.3;11.3;;;;;;;;;;;;;
2019/11/16 00:45:47;;;;;;;12.2;10.6;;;;;;;;;;;;;
2019/11/16 00:48:15;;;;;;;12.5;10.9;;;;;;;;;;;;;
2019/11/16 00:50:38;;;;;;;13.1;10.9;;;;;;;;;;;;;
2019/11/16 00:53:03;;;;;;;14.7;12.9;;;;;;;;;;;;;
2019/11/16 00:55:29;;;;;;;21.9;16.2;;;;;;;;;;;;;
2019/11/16 00:57:59;;;;;;;10.6;9.3;;;;;;;;;;;;;
2019/11/16 01:00:30;;;;;;;9.8;8.8;;;;;;;;;;;;;
2019/11/16 01:02:55;;;;;;;7.6;6.8;;;;;;;;;;;;;
2019/11/16 01:05:17;;;;;;;9.2;8.3;;;;;;;;;;;;;
2019/11/16 01:07:42;;;;;;;9.2;8.2;;;;;;;;;;;;;
2019/11/16 01:10:09;;;;;;;14.4;12.3;;;;;;;;;;;;;
2019/11/16 01:12:34;;;;;;;15.1;13;;;;;;;;;;;;;
2019/11/16 01:15:18;;;;;;;14.6;13;;;;;;;;;;;;;
2019/11/16 01:17:44;;;;;;;19.9;15.2;;;;;;;;;;;;;
2019/11/16 01:20:17;;;;;;;19.3;15.7;;;;;;;;;;;;;
2019/11/16 01:22:45;;;;;;;21.5;16.3;;;;;;;;;;;;;
2019/11/16 01:25:09;;;;;;;22.8;17.3;;;;;;;;;;;;;
2019/11/16 01:27:34;;;;;;;19.8;16.3;;;;;;;;;;;;;
2019/11/16 01:30:05;;;;;;;19.1;15.9;;;;;;;;;;;;;
2019/11/16 01:32:28;;;;;;;19.6;16.3;;;;;;;;;;;;;
2019/11/16 01:34:57;;;;;;;25.7;17.8;;;;;;;;;;;;;
2019/11/16 01:37:25;;;;;;;25;18.1;;;;;;;;;;;;;
2019/11/16 01:39:47;;;;;;;22.8;17.5;;;;;;;;;;;;;
2019/11/16 01:42:11;;;;;;;29.5;18.8;;;;;;;;;;;;;
2019/11/16 01:44:42;;;;;;;26.5;19.2;;;;;;;;;;;;;
2019/11/16 01:47:05;;;;;;;21.9;16.8;;;;;;;;;;;;;
2019/11/16 01:49:27;;;;;;;21.9;16.3;;;;;;;;;;;;;
2019/11/16 01:51:55;;;;;;;24.2;17.1;;;;;;;;;;;;;
2019/11/16 01:54:22;;;;;;;25.9;18;;;;;;;;;;;;;
2019/11/16 01:56:43;;;;;;;24.2;16.7;;;;;;;;;;;;;
2019/11/16 01:59:09;;;;;;;28.3;18.3;;;;;;;;;;;;;
2019/11/16 02:01:33;;;;;;;47.1;21.7;;;;;;;;;;;;;
2019/11/16 02:04:00;;;;;;;32.2;20.3;;;;;;;;;;;;;
2019/11/16 02:06:23;;;;;;;22.5;16;;;;;;;;;;;;;
2019/11/16 02:08:53;;;;;;;20.5;14.9;;;;;;;;;;;;;
2019/11/16 02:16:05;;;;;;;21.8;14.9;;;;;;;;;;;;;
2019/11/16 02:18:29;;;;;;;22;15.1;;;;;;;;;;;;;
2019/11/16 02:20:56;;;;;;;21.4;15.4;;;;;;;;;;;;;
2019/11/16 02:23:31;;;;;;;17.8;13.7;;;;;;;;;;;;;
2019/11/16 02:25:45;;;;;;;17.2;13.1;;;;;;;;;;;;;
2019/11/16 02:28:10;;;;;;;16.1;12.5;;;;;;;;;;;;;
2019/11/16 02:30:35;;;;;;;15.1;11.8;;;;;;;;;;;;;
2019/11/16 02:33:05;;;;;;;12.5;10.7;;;;;;;;;;;;;
2019/11/16 02:35:29;;;;;;;12.6;9.8;;;;;;;;;;;;;
2019/11/16 02:37:55;;;;;;;12.6;10.5;;;;;;;;;;;;;
2019/11/16 02:40:18;;;;;;;13.2;10.3;;;;;;;;;;;;;
2019/11/16 02:42:45;;;;;;;14;11.4;;;;;;;;;;;;;
2019/11/16 02:45:17;;;;;;;12.5;10.5;;;;;;;;;;;;;
2019/11/16 02:47:39;;;;;;;15.4;11.8;;;;;;;;;;;;;
2019/11/16 02:50:04;;;;;;;13.7;11.1;;;;;;;;;;;;;
2019/11/16 02:52:37;;;;;;;13.5;11.3;;;;;;;;;;;;;
2019/11/16 02:54:56;;;;;;;13.5;11.3;;;;;;;;;;;;;
2019/11/16 02:57:22;;;;;;;13.5;10.8;;;;;;;;;;;;;
2019/11/16 02:59:45;;;;;;;12.3;10.5;;;;;;;;;;;;;
2019/11/16 03:02:14;;;;;;;12.4;10;;;;;;;;;;;;;
2019/11/16 03:04:45;;;;;;;12.2;10.4;;;;;;;;;;;;;
2019/11/16 03:07:02;;;;;;;11.8;9.9;;;;;;;;;;;;;
2019/11/16 03:09:26;;;;;;;12.2;9.6;;;;;;;;;;;;;
2019/11/16 03:14:29;;;;;;;11.1;9.5;;;;;;;;;;;;;
2019/11/16 03:17:21;;;;;;;12.2;10.5;;;;;;;;;;;;;
2019/11/16 03:19:52;;;;;;;11.3;9.8;;;;;;;;;;;;;
2019/11/16 03:22:07;;;;;;;12.1;10;;;;;;;;;;;;;
2019/11/16 03:24:33;;;;;;;10.5;9.2;;;;;;;;;;;;;
2019/11/16 03:27:00;;;;;;;9.6;8.5;;;;;;;;;;;;;
2019/11/16 03:29:24;;;;;;;9.3;8.1;;;;;;;;;;;;;
2019/11/16 03:31:48;;;;;;;9.3;8.2;;;;;;;;;;;;;
2019/11/16 03:34:13;;;;;;;10;8.5;;;;;;;;;;;;;
2019/11/16 03:36:38;;;;;;;8.4;7.3;;;;;;;;;;;;;
2019/11/16 03:39:09;;;;;;;7.8;7;;;;;;;;;;;;;
2019/11/16 03:41:31;;;;;;;7.3;6.3;;;;;;;;;;;;;
2019/11/16 03:43:54;;;;;;;6.8;5.9;;;;;;;;;;;;;
2019/11/16 03:46:22;;;;;;;6.7;5.9;;;;;;;;;;;;;
2019/11/16 03:48:46;;;;;;;8.3;6.5;;;;;;;;;;;;;
2019/11/16 03:51:12;;;;;;;11.8;7.9;;;;;;;;;;;;;
2019/11/16 03:53:45;;;;;;;17;11.5;;;;;;;;;;;;;
2019/11/16 03:56:07;;;;;;;12.6;8.9;;;;;;;;;;;;;
2019/11/16 03:58:35;;;;;;;10.9;7.1;;;;;;;;;;;;;
2019/11/16 04:02:33;;;;;;;27;13.8;;;;;;;1.91;90.19922;925.4387;;;;
2019/11/16 04:05:03;;;;;;;24.7;13.6;;;;;;;1.85;90.68066;925.3427;;;;
2019/11/16 04:07:29;;;;;;;23.3;12.7;;;;;;;1.97;90.62891;925.2642;;;;
2019/11/16 04:09:54;;;;;;;20.6;12.6;;;;;;;2.08;90.05859;925.3391;;;;
2019/11/16 04:12:27;;;;;;;21.9;12.4;;;;;;;2.13;89.0625;925.329;;;;
2019/11/16 04:14:53;;;;;;;21.6;11.9;;;;;;;2.23;88.89355;925.2975;;;;
2019/11/16 04:17:19;;;;;;;16.7;10.5;;;;;;;2.24;88.88379;925.4412;;;;
2019/11/16 04:19:43;;;;;;;16.4;10.8;;;;;;;2.02;89.5752;925.4373;;;;
2019/11/16 04:24:46;;;;;;;13.3;8.7;;;;;;;2.11;89.35059;925.495;;;;
2019/11/16 04:27:10;;;;;;;13.9;9.9;;;;;;;2.13;89.2627;925.5228;;;;
2019/11/16 04:29:34;;;;;;;13.4;9.6;;;;;;;2.15;89.35742;925.5539;;;;
2019/11/16 04:32:06;;;;;;;13.4;9.5;;;;;;;2.21;89.05566;925.6409;;;;
2019/11/16 04:34:36;;;;;;;12.3;9.2;;;;;;;2.2;88.875;925.6852;;;;
2019/11/16 04:37:00;;;;;;;13.2;9.9;;;;;;;2.21;89.13379;925.834;;;;
2019/11/16 04:39:26;;;;;;;11.6;9;;;;;;;2.17;89.56348;925.8691;;;;
2019/11/16 04:41:55;;;;;;;12;8.9;;;;;;;2.18;89.6543;925.7963;;;;
2019/11/16 04:44:22;;;;;;;10.5;8.4;;;;;;;2.21;89.05762;925.7289;;;;
2019/11/16 04:46:53;;;;;;;12.1;9.2;;;;;;;2.16;88.44141;925.8195;;;;
2019/11/16 04:49:24;;;;;;;11.6;8.2;;;;;;;2.16;88.2041;925.8633;;;;
2019/11/16 04:51:52;;;;;;;11.1;7.7;;;;;;;2.14;88.2793;925.9799;;;;
2019/11/16 04:54:16;;;;;;;10.9;7.3;;;;;;;2.15;87.8125;926.0798;;;;
2019/11/16 04:57:18;;;;;;;9.9;7;;;;;;;2.18;87.96387;926.0223;;;;
2019/11/16 04:59:09;;;;;;;10.4;7.6;;;;;;;2.18;88.60254;926.1071;;;;
2019/11/16 05:01:38;;;;;;;11.2;7.1;;;;;;;2.04;89.0332;926.1279;;;;
2019/11/16 05:04:04;;;;;;;10.2;6.8;;;;;;;1.85;90.32227;926.1738;;;;
2019/11/16 05:06:28;;;;;;;9.1;6.5;;;;;;;1.96;90.91797;926.1314;;;;
2019/11/16 05:08:56;;;;;;;7.1;5.3;;;;;;;2.06;89.67285;926.0567;;;;
2019/11/16 05:11:23;;;;;;;6.4;5.5;;;;;;;2.14;89.65625;926.1166;;;;
2019/11/16 05:13:50;;;;;;;9.5;6.1;;;;;;;2.18;88.33301;926.2422;;;;
2019/11/16 05:17:08;;;;;;;8.3;5.8;;;;;;;2.22;87.13184;926.3611;;;;
2019/11/16 05:19:37;;;;;;;7.6;5.5;;;;;;;2.19;87.8877;926.3147;;;;
2019/11/16 05:22:06;;;;;;;9.1;6.1;;;;;;;2.23;88.90234;926.3574;;;;
2019/11/16 05:25:10;;;;;;;7.7;6.3;;;;;;;2.23;89.68848;926.3936;;;;
2019/11/16 05:27:31;;;;;;;7.3;6.2;;;;;;;2.3;89.30078;926.4171;;;;
2019/11/16 05:30:16;;;;;;;7.7;6;;;;;;;2.25;89.24414;926.4317;;;;
2019/11/16 05:32:35;;;;;;;6.5;5.4;;;;;;;2.22;89.67383;926.5134;;;;
2019/11/16 05:35:01;;;;;;;5.7;5.1;;;;;;;2.25;88.72949;926.5219;;;;
2019/11/16 05:37:29;;;;;;;7.3;5.7;;;;;;;2.33;88.35449;926.5206;;;;
2019/11/16 05:40:11;;;;;;;7;5;;;;;;;2.44;88.22949;926.567;;;;
2019/11/16 05:42:25;;;;;;;6.2;4.7;;;;;;;2.4;88.08887;926.5652;;;;
2019/11/16 05:44:59;;;;;;;7.1;5.3;;;;;;;2.43;87.63574;926.6282;;;;
2019/11/16 05:47:23;;;;;;;5.7;4.6;;;;;;;2.25;86.09766;926.6869;;;;
2019/11/16 05:49:53;;;;;;;6.6;4.9;;;;;;;2.2;86.72656;926.7703;;;;
2019/11/16 05:52:19;;;;;;;6.1;5.1;;;;;;;2.21;86.97266;926.8086;;;;
2019/11/16 05:54:43;;;;;;;5.7;5.1;;;;;;;2.16;86.67285;926.8002;;;;
2019/11/16 05:57:25;;;;;;;7.9;6;;;;;;;2.18;87.70605;926.8633;;;;
2019/11/16 05:59:37;;;;;;;8.2;5.8;;;;;;;2.13;87.64063;926.8788;;;;
2019/11/16 06:02:11;;;;;;;7.7;6.6;;;;;;;2.12;88.24219;926.8917;;;;
2019/11/16 06:04:40;;;;;;;9.2;6.6;;;;;;;2.18;88.2666;926.9802;;;;
2019/11/16 06:07:10;;;;;;;13.5;7.5;;;;;;;2.14;86.8125;927.1027;;;;
2019/11/16 06:09:39;;;;;;;10.2;7.2;;;;;;;1.91;87.33691;927.1906;;;;
2019/11/16 06:12:03;;;;;;;7.2;5.8;;;;;;;1.92;87.46191;927.2363;;;;
2019/11/16 06:14:35;;;;;;;7.6;5.9;;;;;;;1.94;87.24219;927.2548;;;;
2019/11/16 06:17:05;;;;;;;8.9;6.6;;;;;;;1.9;87.7041;927.2342;;;;
2019/11/16 06:19:29;;;;;;;9.4;7;;;;;;;1.87;87.50879;927.3208;;;;
2019/11/16 06:21:58;;;;;;;7.7;6.2;;;;;;;1.74;88.04004;927.4216;;;;
2019/11/16 06:24:27;;;;;;;9.1;6.4;;;;;;;1.83;88.2041;927.4469;;;;
2019/11/16 06:26:59;;;;;;;9.5;6.4;;;;;;;1.9;87.96191;927.5229;;;;
2019/11/16 06:29:35;;;;;;;17.9;7.5;;;;;;;1.95;87.43359;927.6475;;;;
2019/11/16 06:32:04;;;;;;;11.1;6.9;;;;;;;1.81;87.83105;927.7853;;;;
2019/11/16 06:34:27;;;;;;;14.1;8.7;;;;;;;1.61;89.75781;927.8836;;;;
2019/11/16 06:37:02;;;;;;;11.3;8.4;;;;;;;1.72;90.58594;927.891;;;;
2019/11/16 06:39:29;;;;;;;10.7;8;;;;;;;1.82;89.94727;927.9152;;;;
2019/11/16 06:42:03;;;;;;;15.3;9.4;;;;;;;1.97;89.55469;927.9604;;;;
2019/11/16 06:47:18;;;;;;;19;9.6;;;;;;;2.07;90.13379;927.9772;;;;
2019/11/16 06:49:46;;;;;;;13.7;9;;;;;;;2.21;89.6377;927.9612;;;;
2019/11/16 06:52:26;;;;;;;12.2;9.1;;;;;;;2.34;89.00391;928.0294;;;;
2019/11/16 06:54:47;;;;;;;12.8;9.1;;;;;;;2.42;88.94434;928.0544;;;;
2019/11/16 06:57:14;;;;;;;12.5;9.5;;;;;;;2.47;88.87305;928.1104;;;;
2019/11/16 06:59:41;;;;;;;12.7;9.9;;;;;;;2.48;89.0918;928.1509;;;;
2019/11/16 07:02:06;;;;;;;37.1;13.9;;;;;;;2.54;88.74316;928.1434;;;;
2019/11/16 07:04:38;;;;;;;39.6;13.2;;;;;;;2.39;89.37207;928.1955;;;;
2019/11/16 07:07:09;;;;;;;30.6;14.8;;;;;;;2.34;89.87988;928.2203;;;;
2019/11/16 07:09:32;;;;;;;23.9;15.9;;;;;;;2.35;90.26172;928.3697;;;;
2019/11/16 07:12:00;;;;;;;26.5;14.9;;;;;;;2.43;89.61816;928.4018;;;;
2019/11/16 07:14:33;;;;;;;28.2;13.6;;;;;;;2.49;89.85352;928.4448;;;;
2019/11/16 07:17:01;;;;;;;70;14.2;;;;;;;2.55;89.63184;928.465;;;;
2019/11/16 07:19:31;;;;;;;27.2;13.2;;;;;;;2.6;89.97754;928.5244;;;;
2019/11/16 07:21:58;;;;;;;17.2;12.5;;;;;;;2.66;89.95801;928.5536;;;;
2019/11/16 07:24:33;;;;;;;15.1;12;;;;;;;2.8;89.66309;928.6161;;;;
2019/11/16 07:27:04;;;;;;;17.4;11.1;;;;;;;2.89;89.03125;928.6707;;;;
2019/11/16 07:29:30;;;;;;;13.7;10;;;;;;;2.82;89.21777;928.7045;;;;
2019/11/16 07:32:02;;;;;;;11.6;10.2;;;;;;;2.92;89.5293;928.5886;;;;
2019/11/16 07:34:32;;;;;;;8.8;7.2;;;;;;;3.01;88.77734;928.5588;;;;
2019/11/16 07:36:56;;;;;;;8.6;7.8;;;;;;;3.1;88.30078;928.637;;;;
2019/11/16 07:39:28;;;;;;;6;5.4;;;;;;;3.18;88.16016;928.6465;;;;
2019/11/16 07:42:01;;;;;;;5.3;4.8;;;;;;;3.34;88.16016;928.6753;;;;
2019/11/16 07:47:07;;;;;;;15.4;10.9;;;;;;;3.54;86.46094;928.6647;;;;
2019/11/16 07:49:32;;;;;;;14.5;10;;;;;;;3.58;86.55762;928.6852;;;;
2019/11/16 07:52:04;;;;;;;20.1;15.1;;;;;;;3.55;86.50586;928.7081;;;;
2019/11/16 07:54:35;;;;;;;18.2;14.1;;;;;;;3.52;86.49023;928.85;;;;
2019/11/16 07:57:10;;;;;;;20.5;15.5;;;;;;;3.44;86.93457;928.7595;;;;
2019/11/16 07:59:30;;;;;;;26.1;16.3;;;;;;;3.28;87.29199;928.8558;;;;
2019/11/16 08:02:06;;;;;;;22.5;15.3;;;;;;;3.16;88.22461;928.901;;;;
2019/11/16 08:04:28;;;;;;;19.8;14.8;;;;;;;3.25;88.40918;928.9456;;;;
2019/11/16 08:06:58;;;;;;;29.6;14.8;;;;;;;3.23;88.02441;928.9728;;;;
2019/11/16 08:09:30;;;;;;;39.3;14.7;;;;;;;3.07;88.58496;928.8289;;;;
2019/11/16 08:11:57;;;;;;;25;13.9;;;;;;;3.1;88.83984;928.8438;;;;
2019/11/16 08:14:25;;;;;;;15.2;12.6;;;;;;;3.21;88.61523;928.8755;;;;
2019/11/16 08:16:50;;;;;;;20.6;12.2;;;;;;;3.28;88.24707;928.9172;;;;
2019/11/16 08:19:15;;;;;;;24.7;15.7;;;;;;;3.41;88.04785;928.8776;;;;
2019/11/16 08:21:44;;;;;;;26.1;15.6;;;;;;;3.59;87.63965;928.8656;;;;
2019/11/16 08:24:10;;;;;;;33.5;14.9;;;;;;;3.73;86.74414;928.848;;;;
2019/11/16 08:26:39;;;;;;;28.4;14.9;;;;;;;3.69;86.89453;928.7325;;;;
2019/11/16 08:29:08;;;;;;;33.8;19;;;;;;;3.83;86.93359;928.7252;;;;
2019/11/16 08:31:46;;;;;;;20.2;14.4;;;;;;;4.18;86.83887;928.6247;;;;
2019/11/16 08:34:03;;;;;;;17.6;12.9;;;;;;;4.73;84.25684;928.4374;;;;
2019/11/16 08:36:35;;;;;;;21.5;15.1;;;;;;;4.69;82.31055;928.5684;;;;
2019/11/16 08:38:56;;;;;;;20.5;15.4;;;;;;;4.61;83.30859;928.6602;;;;
2019/11/16 08:41:21;;;;;;;18.6;14.4;;;;;;;4.54;83.72363;928.7582;;;;
2019/11/16 08:43:51;;;;;;;23.5;18;;;;;;;4.58;84.22852;928.7817;;;;
2019/11/16 08:46:20;;;;;;;17.8;14.1;;;;;;;4.78;83.49023;928.8751;;;;
2019/11/16 08:48:45;;;;;;;14.8;9.5;;;;;;;4.57;83.95605;928.7935;;;;
2019/11/16 08:51:08;;;;;;;11.6;7.6;;;;;;;;;;;;;
2019/11/16 08:53:35;;;;;;;8.4;7;;;;;;;;;;;;;
2019/11/16 08:56:04;;;;;;;8.6;7.2;;;;;;;;;;;;;
2019/11/16 08:58:25;;;;;;;12.4;8.9;;;;;;;;;;;;;
2019/11/16 09:00:52;;;;;;;8.5;6.5;;;;;;;;;;;;;
2019/11/16 09:03:15;;;;;;;12.4;9.1;;;;;;;;;;;;;
2019/11/16 09:05:43;;;;;;;10.8;8.1;;;;;;;;;;;;;
2019/11/16 09:08:10;;;;;;;6.1;5.4;;;;;;;;;;;;;
2019/11/16 09:10:31;;;;;;;5.5;4.6;;;;;;;;;;;;;
2019/11/16 09:13:04;;;;;;;7.5;5.2;;;;;;;;;;;;;
2019/11/16 09:15:27;;;;;;;3.3;2.9;;;;;;;;;;;;;
2019/11/16 09:18:10;;;;;;;4.2;3.5;;;;;;;;;;;;;
2019/11/16 09:20:35;;;;;;;10.2;6.7;;;;;;;;;;;;;
2019/11/16 09:23:04;;;;;;;12;9.5;;;;;;;;;;;;;
2019/11/16 09:25:29;;;;;;;9.7;7.9;;;;;;;;;;;;;
2019/11/16 09:27:53;;;;;;;8.4;7.5;;;;;;;;;;;;;
2019/11/16 09:30:22;;;;;;;8.8;7.9;;;;;;;;;;;;;
2019/11/16 09:32:47;;;;;;;8;7.2;;;;;;;;;;;;;
2019/11/16 09:35:12;;;;;;;8.6;7.7;;;;;;;;;;;;;
2019/11/16 09:37:43;;;;;;;10.3;9.2;;;;;;;;;;;;;
2019/11/16 09:40:05;;;;;;;8.6;7.7;;;;;;;;;;;;;
2019/11/16 09:44:57;;;;;;;6.8;6.1;;;;;;;;;;;;;
2019/11/16 09:47:21;;;;;;;5.3;4.8;;;;;;;;;;;;;
2019/11/16 09:49:46;;;;;;;5;4.5;;;;;;;;;;;;;
2019/11/16 09:52:11;;;;;;;7.3;6.3;;;;;;;;;;;;;
2019/11/16 09:54:35;;;;;;;5.5;4.9;;;;;;;;;;;;;
2019/11/16 09:57:03;;;;;;;5.6;5.1;;;;;;;;;;;;;
2019/11/16 09:59:26;;;;;;;5.1;4.7;;;;;;;;;;;;;
2019/11/16 10:01:57;;;;;;;4.7;4.3;;;;;;;;;;;;;
2019/11/16 10:04:19;;;;;;;3.3;3;;;;;;;;;;;;;
2019/11/16 10:07:14;;;;;;;3.1;2.8;;;;;;;;;;;;;
2019/11/16 10:09:27;;;;;;;3.4;3.1;;;;;;;;;;;;;
2019/11/16 10:11:51;;;;;;;3.7;3.1;;;;;;;;;;;;;
2019/11/16 10:14:21;;;;;;;4.3;3.9;;;;;;;;;;;;;
2019/11/16 10:16:40;;;;;;;4.8;4.3;;;;;;;;;;;;;
2019/11/16 10:19:08;;;;;;;4.9;4.4;;;;;;;;;;;;;
2019/11/16 10:21:30;;;;;;;5.5;5;;;;;;;;;;;;;
2019/11/16 10:23:56;;;;;;;5.5;5;;;;;;;;;;;;;
2019/11/16 10:26:30;;;;;;;5.7;5.1;;;;;;;;;;;;;
2019/11/16 10:29:01;;;;;;;6;5.4;;;;;;;;;;;;;
2019/11/16 10:31:21;;;;;;;8;6;;;;;;;;;;;;;
2019/11/16 10:33:47;;;;;;;10;8.4;;;;;;;;;;;;;
2019/11/16 10:36:16;;;;;;;10.5;8.2;;;;;;;;;;;;;
2019/11/16 10:41:06;;;;;;;8.7;6.1;;;;;;;;;;;;;
2019/11/16 10:43:30;;;;;;;6.7;6;;;;;;;;;;;;;
2019/11/16 10:45:57;;;;;;;7.8;6.6;;;;;;;;;;;;;
2019/11/16 10:48:21;;;;;;;8.9;7.9;;;;;;;;;;;;;
2019/11/16 10:50:47;;;;;;;11.1;10;;;;;;;;;;;;;
2019/11/16 10:53:17;;;;;;;11.6;10.4;;;;;;;;;;;;;
2019/11/16 10:55:39;;;;;;;11.7;10.4;;;;;;;;;;;;;
2019/11/16 10:58:20;;;;;;;12.5;11.2;;;;;;;;;;;;;
2019/11/16 11:00:47;;;;;;;13.3;11.8;;;;;;;;;;;;;
2019/11/16 11:03:16;;;;;;;13.4;11.8;;;;;;;;;;;;;
2019/11/16 11:05:44;;;;;;;10.9;9.8;;;;;;;;;;;;;
2019/11/16 11:08:06;;;;;;;12.7;11.4;;;;;;;;;;;;;
2019/11/16 11:10:33;;;;;;;13.5;11.9;;;;;;;;;;;;;
2019/11/16 11:13:00;;;;;;;15.2;12.6;;;;;;;;;;;;;
2019/11/16 11:15:23;;;;;;;14.1;12.4;;;;;;;;;;;;;
2019/11/16 11:17:47;;;;;;;16.5;14.5;;;;;;;;;;;;;
2019/11/16 11:20:16;;;;;;;16.6;14;;;;;;;;;;;;;
2019/11/16 11:22:38;;;;;;;16.5;14;;;;;;;;;;;;;
2019/11/16 11:25:05;;;;;;;17.6;14.5;;;;;;;;;;;;;
2019/11/16 11:30:20;;;;;;;19.9;15.4;;;;;;;;;;;;;
2019/11/16 11:32:46;;;;;;;19;14.4;;;;;;;;;;;;;
2019/11/16 11:35:13;;;;;;;18.6;14.5;;;;;;;;;;;;;
2019/11/16 11:37:38;;;;;;;18.7;14.9;;;;;;;;;;;;;
2019/11/16 11:40:12;;;;;;;18.3;15;;;;;;;;;;;;;
2019/11/16 11:42:47;;;;;;;18.9;15.2;;;;;;;;;;;;;
2019/11/16 11:45:17;;;;;;;21.5;15.9;;;;;;;;;;;;;
2019/11/16 11:47:44;;;;;;;21.4;14.9;;;;;;;;;;;;;
2019/11/16 11:50:08;;;;;;;19.7;15.1;;;;;;;;;;;;;
2019/11/16 11:52:31;;;;;;;19.6;15.2;;;;;;;;;;;;;
2019/11/16 11:54:59;;;;;;;19.9;15.2;;;;;;;;;;;;;
2019/11/16 11:57:27;;;;;;;17.4;13.9;;;;;;;;;;;;;
2019/11/16 11:59:50;;;;;;;17.9;14;;;;;;;;;;;;;
2019/11/16 12:02:13;;;;;;;17.3;13.9;;;;;;;;;;;;;
2019/11/16 12:04:39;;;;;;;16.8;13.8;;;;;;;;;;;;;
2019/11/16 12:07:11;;;;;;;18;14.4;;;;;;;;;;;;;
2019/11/16 12:09:32;;;;;;;18.5;14.9;;;;;;;;;;;;;
2019/11/16 12:11:56;;;;;;;19;13.6;;;;;;;;;;;;;
2019/11/16 12:14:25;;;;;;;18.7;13.9;;;;;;;;;;;;;
2019/11/16 12:17:03;;;;;;;16.3;12.8;;;;;;;;;;;;;
2019/11/16 12:19:12;;;;;;;17.2;13.4;;;;;;;;;;;;;
2019/11/16 12:21:37;;;;;;;16.4;13.5;;;;;;;;;;;;;
2019/11/16 12:24:06;;;;;;;16.1;13;;;;;;;;;;;;;
2019/11/16 12:26:29;;;;;;;13.6;11.4;;;;;;;;;;;;;
2019/11/16 12:28:53;;;;;;;15.6;12.3;;;;;;;;;;;;;
2019/11/16 12:31:19;;;;;;;13.8;11.2;;;;;;;;;;;;;
2019/11/16 12:33:50;;;;;;;12.9;10.1;;;;;;;;;;;;;
2019/11/16 12:36:11;;;;;;;11.8;9.8;;;;;;;;;;;;;
2019/11/16 12:38:34;;;;;;;13.4;10.5;;;;;;;;;;;;;
2019/11/16 12:40:59;;;;;;;14.6;11.9;;;;;;;;;;;;;
2019/11/16 12:43:28;;;;;;;13.5;10.9;;;;;;;;;;;;;
2019/11/16 12:45:52;;;;;;;12;9.8;;;;;;;;;;;;;
2019/11/16 12:48:23;;;;;;;9.7;8.3;;;;;;;;;;;;;
2019/11/16 12:51:12;;;;;;;10.6;8.6;;;;;;;;;;;;;
2019/11/16 12:53:29;;;;;;;12.5;9.9;;;;;;;;;;;;;
2019/11/16 12:55:55;;;;;;;12.5;9.3;;;;;;;;;;;;;
2019/11/16 12:58:20;;;;;;;9.9;8.7;;;;;;;;;;;;;
2019/11/16 13:00:47;;;;;;;12.3;9.3;;;;;;;;;;;;;
2019/11/16 13:03:10;;;;;;;11.2;9;;;;;;;;;;;;;
2019/11/16 13:05:37;;;;;;;10.1;8.4;;;;;;;;;;;;;
2019/11/16 13:08:05;;;;;;;9.3;8;;;;;;;;;;;;;
2019/11/16 13:10:31;;;;;;;9.5;7.9;;;;;;;;;;;;;
2019/11/16 13:12:54;;;;;;;10.2;8.3;;;;;;;;;;;;;
2019/11/16 13:15:17;;;;;;;8.8;7.9;;;;;;;;;;;;;
2019/11/16 13:17:42;;;;;;;8.8;7.5;;;;;;;;;;;;;
2019/11/16 13:20:20;;;;;;;10.5;7.5;;;;;;;;;;;;;
2019/11/16 13:22:33;;;;;;;8.7;7.8;;;;;;;;;;;;;
2019/11/16 13:24:59;;;;;;;9;8;;;;;;;;;;;;;
2019/11/16 13:27:24;;;;;;;9.2;7.6;;;;;;;;;;;;;
2019/11/16 13:29:52;;;;;;;7.5;6.7;;;;;;;;;;;;;
2019/11/16 13:32:16;;;;;;;8.4;7.1;;;;;;;;;;;;;
2019/11/16 13:34:41;;;;;;;8.8;7.6;;;;;;;;;;;;;
2019/11/16 13:37:12;;;;;;;10.7;8.5;;;;;;;;;;;;;
2019/11/16 13:39:32;;;;;;;9.6;8;;;;;;;;;;;;;
2019/11/16 13:41:58;;;;;;;9.3;8.3;;;;;;;;;;;;;
2019/11/16 13:44:27;;;;;;;10.4;8.2;;;;;;;;;;;;;
2019/11/16 13:46:51;;;;;;;10;8.3;;;;;;;;;;;;;
2019/11/16 13:49:23;;;;;;;12;9.9;;;;;;;;;;;;;
2019/11/16 13:51:46;;;;;;;12.8;10.7;;;;;;;;;;;;;
2019/11/16 13:54:11;;;;;;;11.7;9.1;;;;;;;;;;;;;
2019/11/16 13:57:13;;;;;;;10.6;8.8;;;;;;;;;;;;;
2019/11/16 13:59:25;;;;;;;10.5;9.1;;;;;;;;;;;;;
2019/11/16 14:01:51;;;;;;;10.9;8;;;;;;;;;;;;;
2019/11/16 14:04:18;;;;;;;10;8.7;;;;;;;;;;;;;
2019/11/16 14:06:44;;;;;;;11.2;9.1;;;;;;;;;;;;;
2019/11/16 14:09:09;;;;;;;21.8;19.2;;;;;;;;;;;;;
2019/11/16 14:12:12;;;;;;;10.7;9.1;;;;;;;;;;;;;
2019/11/16 14:14:01;;;;;;;11;9.2;;;;;;;;;;;;;
2019/11/16 14:16:25;;;;;;;10.2;8.9;;;;;;;;;;;;;
2019/11/16 14:18:51;;;;;;;8.9;8;;;;;;;;;;;;;
2019/11/16 14:21:18;;;;;;;11.8;9.8;;;;;;;;;;;;;
2019/11/16 14:23:46;;;;;;;14;11.1;;;;;;;;;;;;;
2019/11/16 14:26:12;;;;;;;16.2;13.5;;;;;;;;;;;;;
2019/11/16 14:31:01;;;;;;;14.6;12.7;;;;;;;;;;;;;
2019/11/16 14:33:26;;;;;;;12.6;10.5;;;;;;;;;;;;;
2019/11/16 14:35:54;;;;;;;13;11.6;;;;;;;;;;;;;
2019/11/16 14:38:21;;;;;;;10.3;9.2;;;;;;;;;;;;;
2019/11/16 14:40:45;;;;;;;10.1;8.7;;;;;;;;;;;;;
2019/11/16 14:43:12;;;;;;;9.3;7.7;;;;;;;;;;;;;
2019/11/16 14:45:39;;;;;;;8.9;7.2;;;;;;;;;;;;;
2019/11/16 14:48:02;;;;;;;9.6;8.2;;;;;;;;;;;;;
2019/11/16 14:50:27;;;;;;;8.5;7.6;;;;;;;;;;;;;
2019/11/16 14:52:52;;;;;;;11.5;8.5;;;;;;;;;;;;;
2019/11/16 14:55:18;;;;;;;10.7;9.4;;;;;;;;;;;;;
2019/11/16 14:57:44;;;;;;;12.5;10.5;;;;;;;;;;;;;
2019/11/16 15:00:10;;;;;;;10.8;9.1;;;;;;;;;;;;;
2019/11/16 15:02:37;;;;;;;11.5;9.9;;;;;;;;;;;;;
2019/11/16 15:04:58;;;;;;;12;10.4;;;;;;;;;;;;;
2019/11/16 15:07:24;;;;;;;11.4;9.8;;;;;;;;;;;;;
2019/11/16 15:09:48;;;;;;;10.9;9.6;;;;;;;;;;;;;
2019/11/16 15:12:17;;;;;;;11.2;10;;;;;;;;;;;;;
2019/11/16 15:17:22;;;;;;;11.6;10.3;;;;;;;;;;;;;
2019/11/16 15:19:47;;;;;;;11.6;10.4;;;;;;;;;;;;;
2019/11/16 15:22:14;;;;;;;12.2;9.9;;;;;;;;;;;;;
2019/11/16 15:24:41;;;;;;;11.3;9.7;;;;;;;;;;;;;
2019/11/16 15:27:05;;;;;;;11.6;9.8;;;;;;;;;;;;;
2019/11/16 15:29:29;;;;;;;11.5;9.7;;;;;;;;;;;;;
2019/11/16 15:31:53;;;;;;;10.9;9.8;;;;;;;;;;;;;
2019/11/16 15:34:20;;;;;;;12.2;10.1;;;;;;;;;;;;;
2019/11/16 15:36:45;;;;;;;11.9;10.2;;;;;;;;;;;;;
2019/11/16 15:39:09;;;;;;;11.9;10.2;;;;;;;;;;;;;
2019/11/16 15:41:34;;;;;;;13.8;11.2;;;;;;;;;;;;;
2019/11/16 15:43:59;;;;;;;17.8;13.8;;;;;;;;;;;;;
2019/11/16 15:46:25;;;;;;;17.3;13.6;;;;;;;;;;;;;
2019/11/16 15:48:51;;;;;;;15.4;13;;;;;;;;;;;;;
2019/11/16 15:51:22;;;;;;;14.4;12.1;;;;;;;;;;;;;
2019/11/16 15:53:46;;;;;;;15.1;13.4;;;;;;;;;;;;;
2019/11/16 15:56:13;;;;;;;15.1;13.3;;;;;;;;;;;;;
2019/11/16 15:58:37;;;;;;;16.2;13.3;;;;;;;;;;;;;
2019/11/16 16:01:02;;;;;;;14;11.9;;;;;;;;;;;;;
2019/11/16 16:03:28;;;;;;;14.3;12.3;;;;;;;;;;;;;
2019/11/16 16:05:56;;;;;;;15.5;12.1;;;;;;;;;;;;;
2019/11/16 16:08:20;;;;;;;17;11.5;;;;;;;;;;;;;
2019/11/16 16:10:50;;;;;;;19.7;12.7;;;;;;;;;;;;;
2019/11/16 16:13:17;;;;;;;14.6;11.3;;;;;;;;;;;;;
2019/11/16 16:15:41;;;;;;;18;12.9;;;;;;;;;;;;;
2019/11/16 16:18:01;;;;;;;14;12.1;;;;;;;;;;;;;
2019/11/16 16:20:27;;;;;;;12.5;10.6;;;;;;;;;;;;;
2019/11/16 16:22:57;;;;;;;11.6;10.2;;;;;;;;;;;;;
2019/11/16 16:25:21;;;;;;;14.4;11.8;;;;;;;;;;;;;
2019/11/16 16:27:55;;;;;;;12.3;11;;;;;;;;;;;;;
2019/11/16 16:35:10;;;;;;;11.5;10.3;;;;;;;;;;;;;
2019/11/16 16:37:32;;;;;;;12.9;11.5;;;;;;;;;;;;;
2019/11/16 16:40:02;;;;;;;15.2;13.6;;;;;;;;;;;;;
2019/11/16 16:42:25;;;;;;;13.8;11.6;;;;;;;;;;;;;
2019/11/16 16:44:48;;;;;;;12.6;11.2;;;;;;;;;;;;;
2019/11/16 16:47:14;;;;;;;13.7;12;;;;;;;;;;;;;
2019/11/16 16:49:38;;;;;;;16.3;13.3;;;;;;;;;;;;;
2019/11/16 16:52:05;;;;;;;25.4;20.8;;;;;;;;;;;;;
2019/11/16 16:54:29;;;;;;;28.7;23.1;;;;;;;;;;;;;
2019/11/16 16:56:54;;;;;;;26.3;21;;;;;;;;;;;;;
2019/11/16 16:59:19;;;;;;;30.4;24.4;;;;;;;;;;;;;
2019/11/16 17:01:46;;;;;;;36.2;28.1;;;;;;;;;;;;;
2019/11/16 17:04:09;;;;;;;33.2;26.4;;;;;;;;;;;;;
2019/11/16 17:06:36;;;;;;;11.3;10.1;;;;;;;;;;;;;
2019/11/16 17:09:19;;;;;;;12.8;11.4;;;;;;;;;;;;;
2019/11/16 17:11:39;;;;;;;13.8;12.2;;;;;;;;;;;;;
2019/11/16 17:14:04;;;;;;;17.8;15.2;;;;;;;;;;;;;
2019/11/16 17:16:31;;;;;;;26.3;21.3;;;;;;;;;;;;;
2019/11/16 17:19:19;;;;;;;25.6;20.5;;;;;;;;;;;;;
2019/11/16 17:21:44;;;;;;;29.4;24.3;;;;;;;;;;;;;
2019/11/16 17:23:51;;;;;;;39.3;30.6;;;;;;;;;;;;;
2019/11/16 17:26:14;;;;;;;34.1;26.4;;;;;;;;;;;;;
2019/11/16 17:28:43;;;;;;;29.5;23.2;;;;;;;;;;;;;
2019/11/16 17:31:12;;;;;;;27;21.8;;;;;;;;;;;;;
2019/11/16 17:33:34;;;;;;;23.5;19.1;;;;;;;;;;;;;
2019/11/16 17:35:59;;;;;;;23;18.9;;;;;;;;;;;;;
2019/11/16 17:38:25;;;;;;;21.5;18.6;;;;;;;;;;;;;
2019/11/16 17:40:52;;;;;;;23.7;19.4;;;;;;;;;;;;;
2019/11/16 17:43:19;;;;;;;24.2;19;;;;;;;;;;;;;
2019/11/16 17:45:46;;;;;;;23;18.9;;;;;;;;;;;;;
2019/11/16 17:48:14;;;;;;;21.8;18.6;;;;;;;;;;;;;
2019/11/16 17:50:34;;;;;;;20.8;17.2;;;;;;;;;;;;;
2019/11/16 17:52:59;;;;;;;20.4;16.9;;;;;;;;;;;;;
2019/11/16 17:55:26;;;;;;;22.2;17.3;;;;;;;;;;;;;
2019/11/16 17:57:53;;;;;;;22.5;17.8;;;;;;;;;;;;;
2019/11/16 18:00:15;;;;;;;31.3;24.8;;;;;;;;;;;;;
2019/11/16 18:02:41;;;;;;;27.4;22.8;;;;;;;;;;;;;
2019/11/16 18:05:14;;;;;;;21.7;18.5;;;;;;;;;;;;;
2019/11/16 18:07:43;;;;;;;21.5;18.4;;;;;;;;;;;;;
2019/11/16 18:10:06;;;;;;;20.5;18;;;;;;;;;;;;;
2019/11/16 18:12:30;;;;;;;19.1;17.1;;;;;;;;;;;;;
2019/11/16 18:14:54;;;;;;;19.8;17.7;;;;;;;;;;;;;
2019/11/16 18:17:22;;;;;;;21.9;18.6;;;;;;;;;;;;;
2019/11/16 18:19:51;;;;;;;30.5;22.1;;;;;;;;;;;;;
2019/11/16 18:22:21;;;;;;;24.2;19.1;;;;;;;;;;;;;
2019/11/16 18:24:43;;;;;;;17.8;14.7;;;;;;;;;;;;;
2019/11/16 18:27:07;;;;;;;16.7;14.7;;;;;;;;;;;;;
2019/11/16 18:29:35;;;;;;;17.1;14.8;;;;;;;;;;;;;
2019/11/16 18:32:05;;;;;;;16.7;14.9;;;;;;;;;;;;;
2019/11/16 18:34:32;;;;;;;16.4;14.3;;;;;;;;;;;;;
2019/11/16 18:36:54;;;;;;;15.7;14;;;;;;;;;;;;;
2019/11/16 18:39:18;;;;;;;15.5;13.9;;;;;;;;;;;;;
2019/11/16 18:41:45;;;;;;;15.4;13.7;;;;;;;;;;;;;
2019/11/16 18:44:17;;;;;;;16.3;14;;;;;;;;;;;;;
2019/11/16 18:46:38;;;;;;;17.4;14.5;;;;;;;;;;;;;
2019/11/16 18:49:05;;;;;;;15.7;13.9;;;;;;;;;;;;;
2019/11/16 18:51:34;;;;;;;15.8;14;;;;;;;;;;;;;
2019/11/16 18:54:04;;;;;;;16.1;14.3;;;;;;;;;;;;;
2019/11/16 18:56:28;;;;;;;17.5;15.6;;;;;;;;;;;;;